createdAt,value
2022-11-19T00:02:21.778Z,94351.66
2022-11-19T00:04:50.348Z,94350.91
2022-11-19T00:07:19.087Z,94345.03
2022-11-19T00:09:50.695Z,94342.55
2022-11-19T00:12:37.079Z,94343.27
2022-11-19T00:15:07.758Z,94348.30
2022-11-19T00:17:36.371Z,94349.80
2022-11-19T00:20:07.202Z,94349.67
2022-11-19T00:22:35.781Z,94359.37
2022-11-19T00:25:04.904Z,94365.28
2022-11-19T00:27:33.732Z,94360.16
2022-11-19T00:30:11.028Z,94363.15
2022-11-19T00:32:35.727Z,94360.56
2022-11-19T00:35:04.896Z,94368.74
2022-11-19T00:37:33.500Z,94367.54
2022-11-19T00:40:02.195Z,94361.50
2022-11-19T00:42:30.828Z,94371.38
2022-11-19T00:45:02.457Z,94368.16
2022-11-19T00:47:31.059Z,94370.44
2022-11-19T00:49:59.635Z,94364.56
2022-11-19T00:52:28.207Z,94359.05
2022-11-19T00:54:56.768Z,94286.70
2022-11-19T00:57:25.399Z,94346.30
2022-11-19T00:59:53.982Z,94353.35
2022-11-19T01:02:22.676Z,94355.30
2022-11-19T01:04:51.348Z,94354.80
2022-11-19T01:07:20.006Z,94357.31
2022-11-19T01:09:48.737Z,94366.10
2022-11-19T01:12:17.446Z,94363.64
2022-11-19T01:14:48.847Z,94366.16
2022-11-19T01:17:17.514Z,94378.75
2022-11-19T01:19:46.091Z,94372.23
2022-11-19T01:22:14.566Z,94381.22
2022-11-19T01:24:43.128Z,94370.53
2022-11-19T01:27:11.712Z,94374.15
2022-11-19T01:29:41.814Z,94379.83
2022-11-19T01:32:10.329Z,94384.77
2022-11-19T01:34:41.239Z,94384.92
2022-11-19T01:37:09.810Z,94382.16
2022-11-19T01:39:38.340Z,94388.69
2022-11-19T01:42:08.616Z,94378.59
2022-11-19T01:45:00.467Z,94372.70
2022-11-19T01:47:38.405Z,94383.77
2022-11-19T01:50:07.471Z,94396.01
2022-11-19T01:52:36.146Z,94397.55
2022-11-19T01:55:07.070Z,94390.13
2022-11-19T01:57:37.728Z,94391.69
2022-11-19T02:00:07.227Z,94395.09
2022-11-19T02:02:35.980Z,94397.40
2022-11-19T02:05:05.248Z,94392.66
2022-11-19T02:07:36.937Z,94400.87
2022-11-19T02:10:07.957Z,94407.72
2022-11-19T02:12:48.369Z,94407.16
2022-11-19T02:15:36.686Z,94403.14
2022-11-19T02:18:17.844Z,94397.27
2022-11-19T02:20:49.459Z,94402.19
2022-11-19T02:23:56.056Z,94413.00
2022-11-19T02:26:36.293Z,94411.12
2022-11-19T02:29:30.197Z,94427.45
2022-11-19T02:32:07.763Z,94431.06
2022-11-19T02:34:48.561Z,94433.14
2022-11-19T02:37:20.138Z,94412.36
2022-11-19T02:40:08.393Z,94428.73
2022-11-19T02:42:39.985Z,94440.13
2022-11-19T02:45:11.635Z,94445.25
2022-11-19T02:47:43.157Z,94451.48
2022-11-19T02:50:17.607Z,94459.87
2022-11-19T02:52:47.783Z,94460.99
2022-11-19T02:55:18.985Z,94458.30
2022-11-19T02:58:13.591Z,94461.50
2022-11-19T03:01:06.307Z,94477.81
2022-11-19T03:03:54.212Z,94475.50
2022-11-19T03:06:25.821Z,94480.63
2022-11-19T03:08:54.428Z,94476.63
2022-11-19T03:11:27.697Z,94474.13
2022-11-19T03:14:37.966Z,94478.11
2022-11-19T03:17:23.308Z,94481.50
2022-11-19T03:20:00.343Z,94474.81
2022-11-19T03:22:34.364Z,94479.30
2022-11-19T03:25:16.641Z,94478.55
2022-11-19T03:27:49.067Z,94484.95
2022-11-19T03:30:23.880Z,94486.70
2022-11-19T03:33:00.908Z,94493.69
2022-11-19T03:35:35.210Z,94490.08
2022-11-19T03:38:06.743Z,94488.85
2022-11-19T03:40:36.049Z,94494.77
2022-11-19T03:43:07.635Z,94489.36
2022-11-19T03:45:39.191Z,94498.43
2022-11-19T03:48:16.887Z,94492.88
2022-11-19T03:50:56.850Z,94496.41
2022-11-19T03:53:26.374Z,94496.41
2022-11-19T03:56:06.903Z,94497.37
2022-11-19T03:58:41.065Z,94501.92
2022-11-19T04:01:10.806Z,94499.31
2022-11-19T04:03:42.042Z,94507.78
2022-11-19T04:06:11.820Z,94514.20
2022-11-19T04:08:41.913Z,94519.92
2022-11-19T04:13:59.840Z,94521.40
2022-11-19T04:16:29.899Z,94525.69
2022-11-19T04:18:58.476Z,94524.93
2022-11-19T04:21:38.798Z,94526.44
2022-11-19T04:24:09.105Z,94531.06
2022-11-19T04:26:37.762Z,94524.95
2022-11-19T04:29:06.475Z,94528.30
2022-11-19T04:31:35.240Z,94531.67
2022-11-19T04:34:03.754Z,94535.87
2022-11-19T04:36:32.577Z,94529.80
2022-11-19T04:39:01.613Z,94531.06
2022-11-19T04:41:30.342Z,94542.42
2022-11-19T04:43:59.355Z,94549.64
2022-11-19T04:46:28.060Z,94554.89
2022-11-19T04:48:59.496Z,94559.69
2022-11-19T04:51:29.631Z,94559.90
2022-11-19T04:53:58.143Z,94567.42
2022-11-19T04:56:26.739Z,94571.95
2022-11-19T04:58:55.251Z,94566.34
2022-11-19T05:01:23.960Z,94575.81
2022-11-19T05:03:52.706Z,94576.58
2022-11-19T05:06:21.307Z,94583.58
2022-11-19T05:08:49.861Z,94591.67
2022-11-19T05:11:18.370Z,94601.28
2022-11-19T05:13:46.957Z,94608.38
2022-11-19T05:16:15.495Z,94623.92
2022-11-19T05:18:44.171Z,94633.33
2022-11-19T05:21:12.804Z,94634.09
2022-11-19T05:23:44.476Z,94647.26
2022-11-19T05:26:14.605Z,94648.84
2022-11-19T05:28:44.879Z,94663.69
2022-11-19T05:31:13.447Z,94667.89
2022-11-19T05:33:42.018Z,94671.77
2022-11-19T05:36:10.790Z,94669.88
2022-11-19T05:38:41.171Z,94665.52
2022-11-19T05:41:14.560Z,94658.19
2022-11-19T05:43:45.451Z,94666.34
2022-11-19T05:46:15.817Z,94687.18
2022-11-19T05:48:44.876Z,94697.91
2022-11-19T05:54:14.491Z,94709.59
2022-11-19T05:56:47.796Z,94705.01
2022-11-19T05:59:21.323Z,94706.34
2022-11-19T06:01:52.476Z,94705.30
2022-11-19T06:04:21.462Z,94706.87
2022-11-19T06:07:15.787Z,94713.08
2022-11-19T06:09:44.660Z,94714.92
2022-11-19T06:12:13.288Z,94714.19
2022-11-19T06:14:43.356Z,94730.00
2022-11-19T06:17:12.001Z,94734.37
2022-11-19T06:19:41.040Z,94745.17
2022-11-19T06:22:10.346Z,94747.69
2022-11-19T06:24:38.872Z,94754.04
2022-11-19T06:27:12.175Z,94763.33
2022-11-19T06:29:41.338Z,94761.72
2022-11-19T06:32:09.968Z,94765.70
2022-11-19T06:34:39.668Z,94776.00
2022-11-19T06:37:09.808Z,94775.71
2022-11-19T06:39:38.304Z,94777.49
2022-11-19T06:42:25.658Z,94780.13
2022-11-19T06:44:55.798Z,94784.08
2022-11-19T06:47:24.382Z,94791.56
2022-11-19T06:49:53.061Z,94802.70
2022-11-19T06:52:21.634Z,94806.32
2022-11-19T06:54:50.535Z,94814.09
2022-11-19T06:57:19.208Z,94821.75
2022-11-19T06:59:49.252Z,94820.70
2022-11-19T07:02:22.061Z,94813.13
2022-11-19T07:04:50.743Z,94814.74
2022-11-19T07:07:19.460Z,94821.08
2022-11-19T07:09:49.674Z,94818.36
2022-11-19T07:12:18.517Z,94815.05
2022-11-19T07:14:47.118Z,94776.36
2022-11-19T07:17:17.399Z,94812.88
2022-11-19T07:19:49.065Z,94816.95
2022-11-19T07:22:17.713Z,94825.99
2022-11-19T07:24:50.302Z,94824.69
2022-11-19T07:27:18.992Z,94817.23
2022-11-19T07:29:50.425Z,94811.17
2022-11-19T07:32:20.207Z,94800.25
2022-11-19T07:34:51.666Z,94803.78
2022-11-19T07:37:20.443Z,94803.58
2022-11-19T07:39:49.075Z,94799.69
2022-11-19T07:42:35.700Z,94804.68
2022-11-19T07:45:04.869Z,94806.26
2022-11-19T07:47:38.307Z,94807.25
2022-11-19T07:50:07.667Z,94822.52
2022-11-19T07:52:37.793Z,94830.45
2022-11-19T07:55:06.994Z,94834.06
2022-11-19T07:57:35.671Z,94827.25
2022-11-19T08:00:06.785Z,94830.03
2022-11-19T08:02:37.232Z,94831.81
2022-11-19T08:05:06.071Z,94836.23
2022-11-19T08:07:34.719Z,94842.38
2022-11-19T08:10:15.667Z,94854.45
2022-11-19T08:12:46.153Z,94848.34
2022-11-19T08:18:13.757Z,94847.56
2022-11-19T08:20:48.800Z,94853.86
2022-11-19T08:23:20.221Z,94854.23
2022-11-19T08:25:48.858Z,94785.72
2022-11-19T08:28:21.447Z,94855.79
2022-11-19T08:30:50.000Z,94870.97
2022-11-19T08:33:19.166Z,94878.21
2022-11-19T08:35:48.070Z,94868.09
2022-11-19T08:38:16.626Z,94872.92
2022-11-19T08:40:46.764Z,94859.98
2022-11-19T08:43:15.356Z,94858.29
2022-11-19T08:45:46.965Z,94872.20
2022-11-19T08:48:15.626Z,94867.98
2022-11-19T08:50:44.394Z,94867.80
2022-11-19T08:53:13.160Z,94860.25
2022-11-19T08:55:41.792Z,94860.31
2022-11-19T08:58:12.201Z,94861.78
2022-11-19T09:00:40.889Z,94863.16
2022-11-19T09:03:09.513Z,94881.86
2022-11-19T09:05:38.151Z,94881.68
2022-11-19T09:08:08.006Z,94878.55
2022-11-19T09:10:37.834Z,94892.30
2022-11-19T09:13:07.420Z,94890.82
2022-11-19T09:15:40.256Z,94890.70
2022-11-19T09:18:09.230Z,94887.93
2022-11-19T09:20:39.552Z,94892.77
2022-11-19T09:23:08.627Z,94893.33
2022-11-19T09:25:37.402Z,94891.55
2022-11-19T09:28:07.958Z,94886.81
2022-11-19T09:30:45.436Z,94876.45
2022-11-19T09:33:18.996Z,94870.63
2022-11-19T09:35:55.357Z,94874.57
2022-11-19T09:38:31.464Z,94862.56
2022-11-19T09:41:06.218Z,94863.05
2022-11-19T09:43:54.573Z,94863.84
2022-11-19T09:46:29.236Z,94848.59
2022-11-19T09:49:08.680Z,94843.08
2022-11-19T09:51:40.400Z,94845.34
2022-11-19T09:54:11.809Z,94831.91
2022-11-19T09:56:46.524Z,94812.64
2022-11-19T09:59:28.340Z,94804.36
2022-11-19T10:02:04.463Z,94812.22
2022-11-19T10:04:34.231Z,94818.78
2022-11-19T10:07:12.008Z,94815.41
2022-11-19T10:09:49.216Z,94815.75
2022-11-19T10:12:32.933Z,94804.66
2022-11-19T10:15:07.949Z,94801.88
2022-11-19T10:17:57.492Z,94802.37
2022-11-19T10:20:34.627Z,94798.19
2022-11-19T10:23:22.835Z,94803.94
2022-11-19T10:25:53.920Z,94805.45
2022-11-19T10:28:28.747Z,94786.17
2022-11-19T10:31:25.985Z,94808.05
2022-11-19T10:33:58.860Z,94804.11
2022-11-19T10:36:32.018Z,94806.73
2022-11-19T10:39:37.285Z,94797.95
2022-11-19T10:42:34.630Z,94796.95
2022-11-19T10:45:21.441Z,94794.66
2022-11-19T10:48:01.406Z,94793.08
2022-11-19T10:50:29.500Z,94777.88
2022-11-19T10:53:33.208Z,94783.88
2022-11-19T10:56:07.604Z,94775.02
2022-11-19T10:58:50.969Z,94779.00
2022-11-19T11:01:33.265Z,94775.05
2022-11-19T11:04:23.581Z,94772.41
2022-11-19T11:06:58.071Z,94762.95
2022-11-19T11:09:36.429Z,94762.04
2022-11-19T11:12:29.367Z,94762.63
2022-11-19T11:15:03.501Z,94769.35
2022-11-19T11:17:36.982Z,94756.95
2022-11-19T11:20:08.793Z,94764.17
2022-11-19T11:22:39.374Z,94759.63
2022-11-19T11:25:10.915Z,94744.45
2022-11-19T11:27:39.631Z,94748.41
2022-11-19T11:30:14.130Z,94759.96
2022-11-19T11:32:43.446Z,94755.41
2022-11-19T11:35:33.346Z,94747.92
2022-11-19T11:38:07.772Z,94748.34
2022-11-19T11:40:37.073Z,94733.02
2022-11-19T11:43:07.448Z,94735.36
2022-11-19T11:45:37.801Z,94723.52
2022-11-19T11:48:09.160Z,94710.45
2022-11-19T11:50:46.644Z,94730.91
2022-11-19T11:53:20.845Z,94739.59
2022-11-19T11:55:55.109Z,94746.31
2022-11-19T11:58:32.071Z,94740.65
2022-11-19T12:01:19.251Z,94745.39
2022-11-19T12:04:06.136Z,94741.13
2022-11-19T12:06:38.092Z,94744.13
2022-11-19T12:09:22.088Z,94740.89
2022-11-19T12:12:08.030Z,94735.87
2022-11-19T12:15:02.382Z,94662.34
2022-11-19T12:17:45.869Z,94725.51
2022-11-19T12:20:45.054Z,94728.53
2022-11-19T12:23:16.772Z,94731.86
2022-11-19T12:26:10.881Z,94732.13
2022-11-19T12:28:51.546Z,94725.73
2022-11-19T12:31:48.511Z,94730.59
2022-11-19T12:34:29.246Z,94739.64
2022-11-19T12:37:17.182Z,94736.95
2022-11-19T12:39:57.784Z,94740.86
2022-11-19T12:42:44.306Z,94747.11
2022-11-19T12:45:36.818Z,94744.48
2022-11-19T12:48:17.006Z,94736.22
2022-11-19T12:51:12.666Z,94746.09
2022-11-19T12:54:04.686Z,94723.06
2022-11-19T12:57:09.091Z,94726.61
2022-11-19T12:59:58.855Z,94737.70
2022-11-19T13:02:30.521Z,94745.04
2022-11-19T13:05:18.903Z,94733.61
2022-11-19T13:08:08.422Z,94731.41
2022-11-19T13:10:47.762Z,94739.66
2022-11-19T13:13:17.193Z,94732.50
2022-11-19T13:15:48.832Z,94732.53
2022-11-19T13:18:20.435Z,94739.76
2022-11-19T13:20:52.145Z,94726.87
2022-11-19T13:23:29.447Z,94735.69
2022-11-19T13:26:19.015Z,94736.38
2022-11-19T13:28:53.577Z,94734.17
2022-11-19T13:31:34.122Z,94744.22
2022-11-19T13:34:08.254Z,94754.38
2022-11-19T13:36:47.744Z,94751.84
2022-11-19T13:39:26.653Z,94756.58
2022-11-19T13:42:18.718Z,94747.02
2022-11-19T13:51:31.159Z,94736.38
2022-11-19T13:54:03.343Z,94739.66
2022-11-19T13:56:50.640Z,94744.06
2022-11-19T13:59:35.588Z,94732.88
2022-11-19T14:02:23.406Z,94741.94
2022-11-19T14:05:11.457Z,94734.37
2022-11-19T14:08:00.212Z,94732.25
2022-11-19T14:10:46.789Z,94746.04
2022-11-19T14:13:46.997Z,94745.70
2022-11-19T14:16:59.310Z,94745.87
2022-11-19T14:19:47.470Z,94751.36
2022-11-19T14:22:57.415Z,94745.88
2022-11-19T14:26:04.639Z,94735.94
2022-11-19T14:28:54.306Z,94742.41
2022-11-19T14:31:23.271Z,94737.56
2022-11-19T14:33:59.911Z,94740.01
2022-11-19T14:36:51.844Z,94743.59
2022-11-19T14:39:28.072Z,94733.25
2022-11-19T14:42:17.830Z,94735.44
2022-11-19T14:44:47.408Z,94732.68
2022-11-19T14:47:37.168Z,94742.97
2022-11-19T14:50:11.832Z,94742.14
2022-11-19T14:52:52.353Z,94736.84
2022-11-19T14:55:26.779Z,94738.40
2022-11-19T14:58:05.217Z,94744.19
2022-11-19T15:00:41.240Z,94736.83
2022-11-19T15:03:25.124Z,94748.70
2022-11-19T15:05:57.197Z,94740.14
2022-11-19T15:08:31.325Z,94734.91
2022-11-19T15:11:08.558Z,94745.28
2022-11-19T15:13:47.483Z,94751.23
2022-11-19T15:16:22.022Z,94746.94
2022-11-19T15:19:14.533Z,94733.52
2022-11-19T15:21:55.106Z,94741.04
2022-11-19T15:24:47.533Z,94747.52
2022-11-19T15:27:34.034Z,94746.06
2022-11-19T15:30:24.147Z,94753.77
2022-11-19T15:33:12.514Z,94739.24
2022-11-19T15:36:12.064Z,94754.61
2022-11-19T15:38:46.606Z,94758.41
2022-11-19T15:41:20.863Z,94749.55
2022-11-19T15:43:55.147Z,94746.83
2022-11-19T15:46:42.504Z,94748.58
2022-11-19T15:49:29.295Z,94749.52
2022-11-19T15:52:17.593Z,94744.84
2022-11-19T15:54:47.572Z,94737.38
2022-11-19T15:57:24.974Z,94736.13
2022-11-19T15:59:59.681Z,94739.04
2022-11-19T16:02:31.294Z,94726.59
2022-11-19T16:05:00.111Z,94736.53
2022-11-19T16:07:31.406Z,94739.54
2022-11-19T16:10:01.392Z,94734.80
2022-11-19T16:12:48.087Z,94742.64
2022-11-19T16:15:43.052Z,94745.75
2022-11-19T16:18:19.920Z,94731.88
2022-11-19T16:20:51.003Z,94750.84
2022-11-19T16:23:25.570Z,94751.22
2022-11-19T16:25:57.631Z,94752.31
2022-11-19T16:28:30.582Z,94753.55
2022-11-19T16:31:05.278Z,94764.77
2022-11-19T16:33:35.427Z,94755.36
2022-11-19T16:36:21.127Z,94770.63
2022-11-19T16:38:54.409Z,94769.46
2022-11-19T16:41:44.633Z,94770.61
2022-11-19T16:44:21.530Z,94767.59
2022-11-19T16:46:51.225Z,94786.28
2022-11-19T16:49:44.370Z,94787.06
2022-11-19T16:52:17.728Z,94776.28
2022-11-19T16:54:49.170Z,94787.47
2022-11-19T16:57:26.154Z,94767.28
2022-11-19T16:59:58.070Z,94790.80
2022-11-19T17:02:35.227Z,94784.20
2022-11-19T17:05:12.968Z,94771.72
2022-11-19T17:08:01.536Z,94771.64
2022-11-19T17:10:31.875Z,94780.70
2022-11-19T17:13:09.330Z,94791.24
2022-11-19T17:15:48.785Z,94789.42
2022-11-19T17:18:32.422Z,94792.20
2022-11-19T17:21:22.534Z,94799.12
2022-11-19T17:23:58.865Z,94793.67
2022-11-19T17:26:28.322Z,94772.22
2022-11-19T17:29:01.563Z,94767.02
2022-11-19T17:31:31.139Z,94777.18
2022-11-19T17:34:14.287Z,94770.48
2022-11-19T17:36:43.854Z,94755.88
2022-11-19T17:39:14.923Z,94785.65
2022-11-19T17:42:03.831Z,94783.88
2022-11-19T17:44:35.770Z,94774.27
2022-11-19T17:47:17.917Z,94791.70
2022-11-19T17:49:38.125Z,94802.83
2022-11-19T17:52:14.463Z,94812.21
2022-11-19T17:54:44.737Z,94831.47
2022-11-19T17:57:13.406Z,94805.81
2022-11-19T17:59:42.044Z,94820.31
2022-11-19T18:02:18.820Z,94813.36
2022-11-19T18:04:48.583Z,94790.91
2022-11-19T18:07:19.245Z,94784.38
2022-11-19T18:09:49.574Z,94813.64
2022-11-19T18:12:21.456Z,94830.58
2022-11-19T18:14:52.299Z,94803.51
2022-11-19T18:17:24.320Z,94793.85
2022-11-19T18:19:56.137Z,94818.53
2022-11-19T18:22:26.507Z,94830.85
2022-11-19T18:24:57.261Z,94803.35
2022-11-19T18:27:29.173Z,94802.24
2022-11-19T18:30:08.531Z,94805.33
2022-11-19T18:32:53.092Z,94803.02
2022-11-19T18:38:27.881Z,94798.81
2022-11-19T18:41:12.418Z,94791.98
2022-11-19T18:44:17.202Z,94780.87
2022-11-19T18:47:03.169Z,94790.38
2022-11-19T18:49:36.596Z,94801.94
2022-11-19T18:55:14.813Z,94781.98
2022-11-19T18:57:51.499Z,94779.39
2022-11-19T19:00:27.673Z,94788.98
2022-11-19T19:03:33.943Z,94799.70
2022-11-19T19:21:23.656Z,94780.07
2022-11-19T19:23:52.047Z,94785.66
2022-11-19T19:29:32.779Z,94776.86
2022-11-19T19:36:02.515Z,94785.27
2022-11-19T19:38:23.779Z,94775.23
2022-11-19T19:44:08.296Z,94776.88
2022-11-19T20:15:05.851Z,94728.47
2022-11-19T20:21:05.289Z,94660.68
2022-11-19T20:29:34.266Z,94722.81
2022-11-19T20:32:09.970Z,94722.98
2022-11-19T20:34:37.670Z,94729.64
2022-11-19T20:37:06.449Z,94714.65
2022-11-19T20:39:35.053Z,94716.75
2022-11-19T20:42:24.651Z,94708.01
2022-11-19T20:44:55.853Z,94710.58
2022-11-19T20:47:34.576Z,94630.31
2022-11-19T20:50:05.909Z,94703.36
2022-11-19T20:52:35.378Z,94707.30
2022-11-19T20:55:06.872Z,94700.91
2022-11-19T20:57:34.492Z,94694.56
2022-11-19T21:00:09.934Z,94698.36
2022-11-19T21:02:46.764Z,94703.49
2022-11-19T21:05:34.954Z,94712.67
2022-11-19T21:07:56.554Z,94721.76
2022-11-19T21:17:25.349Z,94702.48
2022-11-19T21:19:56.206Z,94671.70
2022-11-19T21:22:24.785Z,94699.14
2022-11-19T21:27:44.981Z,94692.64
2022-11-19T21:30:16.202Z,94687.81
2022-11-19T21:32:44.842Z,94683.23
2022-11-19T21:35:13.630Z,94692.73
2022-11-19T21:37:43.691Z,94681.98
2022-11-19T21:40:12.698Z,94659.02
2022-11-19T21:42:42.900Z,94680.34
2022-11-19T21:45:11.591Z,94694.02
2022-11-19T21:47:41.189Z,94591.44
2022-11-19T21:50:09.886Z,94671.09
2022-11-19T21:52:45.312Z,94671.76
2022-11-19T21:55:17.489Z,94679.03
2022-11-19T21:57:46.134Z,94667.88
2022-11-19T22:00:19.293Z,94676.30
2022-11-19T22:02:50.508Z,94684.86
2022-11-19T22:05:19.113Z,94672.05
2022-11-19T22:07:49.540Z,94671.02
2022-11-19T22:10:19.993Z,94684.58
2022-11-19T22:12:54.061Z,94669.34
2022-11-19T22:15:26.621Z,94660.48
2022-11-19T22:18:09.794Z,94649.27
2022-11-19T22:20:38.817Z,94639.66
2022-11-19T22:23:08.821Z,94646.41
2022-11-19T22:25:38.897Z,94669.75
2022-11-19T22:28:10.228Z,94668.98
2022-11-19T22:30:39.137Z,94644.84
2022-11-19T22:33:09.781Z,94636.98
2022-11-19T22:35:42.922Z,94617.09
2022-11-19T22:38:11.757Z,94637.63
2022-11-19T22:40:41.985Z,94631.39
2022-11-19T22:43:10.687Z,94610.22
2022-11-19T22:45:39.269Z,94625.74
2022-11-19T22:48:08.185Z,94649.13
2022-11-19T22:50:41.678Z,94617.31
2022-11-19T22:53:14.861Z,94631.61
2022-11-19T22:55:44.819Z,94588.26
2022-11-19T22:58:15.420Z,94640.73
2022-11-19T23:00:52.043Z,94629.91
2022-11-19T23:03:20.695Z,94645.25
2022-11-19T23:05:53.966Z,94653.88
2022-11-19T23:08:23.151Z,94642.87
2022-11-19T23:11:00.160Z,94643.48
2022-11-19T23:13:33.231Z,94624.61
2022-11-19T23:16:16.276Z,94647.38
2022-11-19T23:18:50.763Z,94652.45
2022-11-19T23:21:32.539Z,94645.84
2022-11-19T23:24:04.996Z,94635.58
2022-11-19T23:26:36.534Z,94611.34
2022-11-19T23:29:14.516Z,94653.95
2022-11-19T23:31:42.564Z,94636.53
2022-11-19T23:34:14.338Z,94637.29
2022-11-19T23:36:47.234Z,94647.50
2022-11-19T23:39:21.556Z,94684.43
2022-11-19T23:41:50.733Z,94624.83
2022-11-19T23:44:19.497Z,94645.89
2022-11-19T23:46:49.768Z,94674.39
2022-11-19T23:49:28.709Z,94650.41
2022-11-19T23:52:01.813Z,94647.84
2022-11-19T23:54:33.169Z,94662.48
2022-11-19T23:57:03.493Z,94631.94
2022-11-19T23:59:32.367Z,94652.86
